createdAt,value
2022-09-18T00:01:27.930Z,9.50
2022-09-18T00:03:58.319Z,9.50
2022-09-18T00:06:28.083Z,9.50
2022-09-18T00:08:58.189Z,9.50
2022-09-18T00:11:28.763Z,9.50
2022-09-18T00:13:56.424Z,9.50
2022-09-18T00:16:24.893Z,9.40
2022-09-18T00:18:52.892Z,9.40
2022-09-18T00:21:24.534Z,9.40
2022-09-18T00:23:54.953Z,9.40
2022-09-18T00:26:22.945Z,9.20
2022-09-18T00:28:50.309Z,9.10
2022-09-18T00:31:25.855Z,9.10
2022-09-18T00:33:53.907Z,9.10
2022-09-18T00:36:21.908Z,9.10
2022-09-18T00:38:49.736Z,9.10
2022-09-18T00:41:24.261Z,9.10
2022-09-18T00:43:54.175Z,9.20
2022-09-18T00:46:30.326Z,9.20
2022-09-18T00:49:20.284Z,9.20
2022-09-18T00:51:49.662Z,9.20
2022-09-18T00:54:33.404Z,9.30
2022-09-18T00:57:07.685Z,9.30
2022-09-18T00:59:37.460Z,9.30
2022-09-18T01:02:05.285Z,9.30
2022-09-18T01:04:32.705Z,9.30
2022-09-18T01:07:40.181Z,9.30
2022-09-18T01:10:50.941Z,9.30
2022-09-18T01:13:25.653Z,9.40
2022-09-18T01:16:29.775Z,9.40
2022-09-18T01:19:42.720Z,9.40
2022-09-18T01:22:38.813Z,9.40
2022-09-18T01:25:50.385Z,9.40
2022-09-18T01:28:39.134Z,9.30
2022-09-18T01:31:13.744Z,9.30
2022-09-18T01:33:54.666Z,9.20
2022-09-18T01:36:27.166Z,9.20
2022-09-18T01:39:04.568Z,9.20
2022-09-18T01:41:33.982Z,9.20
2022-09-18T01:44:12.009Z,9.20
2022-09-18T01:46:42.787Z,9.20
2022-09-18T01:49:19.189Z,9.20
2022-09-18T01:52:00.073Z,9.10
2022-09-18T01:54:32.640Z,9.00
2022-09-18T01:57:08.053Z,9.00
2022-09-18T01:59:42.505Z,9.00
2022-09-18T02:02:56.496Z,9.00
2022-09-18T02:05:35.648Z,9.00
2022-09-18T02:08:07.900Z,9.00
2022-09-18T02:10:43.843Z,9.00
2022-09-18T02:13:18.830Z,9.00
2022-09-18T02:15:49.396Z,8.90
2022-09-18T02:18:29.296Z,8.90
2022-09-18T02:20:59.143Z,8.90
2022-09-18T02:23:28.269Z,8.90
2022-09-18T02:26:04.368Z,8.90
2022-09-18T02:28:34.260Z,8.90
2022-09-18T02:31:01.735Z,8.90
2022-09-18T02:33:37.000Z,8.90
2022-09-18T02:36:55.365Z,8.90
2022-09-18T02:40:24.249Z,8.90
2022-09-18T02:43:17.871Z,8.90
2022-09-18T02:46:07.334Z,8.90
2022-09-18T02:49:23.370Z,8.90
2022-09-18T02:52:14.194Z,8.90
2022-09-18T02:54:59.401Z,8.90
2022-09-18T02:58:02.228Z,8.90
2022-09-18T03:00:32.105Z,8.90
2022-09-18T03:03:02.205Z,8.90
2022-09-18T03:05:35.222Z,8.90
2022-09-18T03:08:03.025Z,8.90
2022-09-18T03:10:31.910Z,8.90
2022-09-18T03:12:59.277Z,8.90
2022-09-18T03:15:26.863Z,8.90
2022-09-18T03:17:54.218Z,9.00
2022-09-18T03:20:21.543Z,8.90
2022-09-18T03:22:49.685Z,8.90
2022-09-18T03:25:17.590Z,8.90
2022-09-18T03:27:45.119Z,8.90
2022-09-18T03:30:17.889Z,8.90
2022-09-18T03:32:45.745Z,8.90
2022-09-18T03:35:16.295Z,8.90
2022-09-18T03:37:43.709Z,8.90
2022-09-18T03:40:16.098Z,8.90
2022-09-18T03:42:44.793Z,8.90
2022-09-18T03:45:13.877Z,8.90
2022-09-18T03:47:41.309Z,8.90
2022-09-18T03:50:11.241Z,8.90
2022-09-18T03:52:39.656Z,8.90
2022-09-18T03:55:21.213Z,8.90
2022-09-18T03:58:17.479Z,8.90
2022-09-18T04:01:03.870Z,8.90
2022-09-18T04:03:40.876Z,8.90
2022-09-18T04:06:46.487Z,8.90
2022-09-18T04:09:34.395Z,9.00
2022-09-18T04:12:02.033Z,9.00
2022-09-18T04:14:30.249Z,8.90
2022-09-18T04:17:00.409Z,8.90
2022-09-18T04:19:27.686Z,8.90
2022-09-18T04:21:57.231Z,8.90
2022-09-18T04:24:24.789Z,8.90
2022-09-18T04:26:52.494Z,8.90
2022-09-18T04:29:23.099Z,8.90
2022-09-18T04:31:51.292Z,8.90
2022-09-18T04:34:21.012Z,8.90
2022-09-18T04:36:48.553Z,8.90
2022-09-18T04:39:16.181Z,8.90
2022-09-18T04:41:45.665Z,8.90
2022-09-18T04:44:14.478Z,8.80
2022-09-18T04:46:43.347Z,8.90
2022-09-18T04:49:11.500Z,8.90
2022-09-18T04:51:39.173Z,8.90
2022-09-18T04:54:06.533Z,8.80
2022-09-18T04:56:37.572Z,8.80
2022-09-18T04:59:04.948Z,8.80
2022-09-18T05:01:34.699Z,8.80
2022-09-18T05:04:08.515Z,8.80
2022-09-18T05:06:47.230Z,8.80
2022-09-18T05:09:15.536Z,8.80
2022-09-18T05:11:42.941Z,8.70
2022-09-18T05:14:10.292Z,8.70
2022-09-18T05:16:37.940Z,8.80
2022-09-18T05:19:21.168Z,8.80
2022-09-18T05:21:50.500Z,8.70
2022-09-18T05:24:18.780Z,8.80
2022-09-18T05:26:48.730Z,8.80
2022-09-18T05:29:18.730Z,8.80
2022-09-18T05:31:47.897Z,8.80
2022-09-18T05:34:16.778Z,8.80
2022-09-18T05:36:46.080Z,8.80
2022-09-18T05:39:17.452Z,8.80
2022-09-18T05:41:50.217Z,8.80
2022-09-18T05:44:17.989Z,8.90
2022-09-18T05:46:49.920Z,8.90
2022-09-18T05:49:18.090Z,8.90
2022-09-18T05:51:46.470Z,9.00
2022-09-18T05:54:15.563Z,9.10
2022-09-18T05:56:47.734Z,9.10
2022-09-18T05:59:15.056Z,9.10
2022-09-18T06:01:47.254Z,9.10
2022-09-18T06:04:34.920Z,9.10
2022-09-18T06:07:08.576Z,9.10
2022-09-18T06:09:35.946Z,9.20
2022-09-18T06:12:03.386Z,9.20
2022-09-18T06:14:34.608Z,9.20
2022-09-18T06:17:03.477Z,9.20
2022-09-18T06:19:34.746Z,9.30
2022-09-18T06:22:02.410Z,9.40
2022-09-18T06:24:29.823Z,9.50
2022-09-18T06:27:26.284Z,9.60
2022-09-18T06:29:54.364Z,9.70
2022-09-18T06:32:33.112Z,9.80
2022-09-18T06:35:00.444Z,9.80
2022-09-18T06:37:27.841Z,9.70
2022-09-18T06:40:07.886Z,9.70
2022-09-18T06:42:57.295Z,9.80
2022-09-18T06:45:52.570Z,9.90
2022-09-18T06:48:23.628Z,10.00
2022-09-18T06:50:54.923Z,10.10
2022-09-18T06:53:24.542Z,10.10
2022-09-18T06:56:00.401Z,10.10
2022-09-18T06:58:27.839Z,10.10
2022-09-18T07:00:59.852Z,10.10
2022-09-18T07:03:33.962Z,10.10
2022-09-18T07:06:20.016Z,10.00
2022-09-18T07:08:49.892Z,10.00
2022-09-18T07:11:57.418Z,9.90
2022-09-18T07:14:34.492Z,10.00
2022-09-18T07:17:15.376Z,10.10
2022-09-18T07:19:46.444Z,10.10
2022-09-18T07:22:16.404Z,10.20
2022-09-18T07:24:47.144Z,10.40
2022-09-18T07:27:14.753Z,10.60
2022-09-18T07:29:43.693Z,10.70
2022-09-18T07:32:14.336Z,10.80
2022-09-18T07:34:47.837Z,11.00
2022-09-18T07:37:21.541Z,11.10
2022-09-18T07:39:57.998Z,11.20
2022-09-18T07:42:44.254Z,11.10
2022-09-18T07:45:13.137Z,11.30
2022-09-18T07:47:40.581Z,11.40
2022-09-18T07:50:15.644Z,11.50
2022-09-18T07:52:54.628Z,11.90
2022-09-18T07:55:27.198Z,11.80
2022-09-18T07:58:00.265Z,11.80
2022-09-18T08:00:50.868Z,12.00
2022-09-18T08:03:19.070Z,12.00
2022-09-18T08:06:16.044Z,12.10
2022-09-18T08:08:55.415Z,12.20
2022-09-18T08:11:43.299Z,12.30
2022-09-18T08:14:36.593Z,12.40
2022-09-18T08:17:17.431Z,12.50
2022-09-18T08:20:04.441Z,12.30
2022-09-18T08:22:53.041Z,12.30
2022-09-18T08:25:24.433Z,12.00
2022-09-18T08:27:52.759Z,11.90
2022-09-18T08:30:31.111Z,12.10
2022-09-18T08:33:02.657Z,12.20
2022-09-18T08:35:31.874Z,12.40
2022-09-18T08:38:04.822Z,12.60
2022-09-18T08:41:23.252Z,12.80
2022-09-18T08:44:17.807Z,13.40
2022-09-18T08:46:51.453Z,13.40
2022-09-18T08:49:32.999Z,13.50
2022-09-18T08:52:22.882Z,13.10
2022-09-18T08:55:27.436Z,12.80
2022-09-18T08:58:20.317Z,12.60
2022-09-18T09:00:55.271Z,12.90
2022-09-18T09:04:13.622Z,12.90
2022-09-18T09:07:06.248Z,13.00
2022-09-18T09:10:17.682Z,13.10
2022-09-18T09:13:25.464Z,13.00
2022-09-18T09:16:14.775Z,12.80
2022-09-18T09:19:07.034Z,13.10
2022-09-18T09:21:57.332Z,13.40
2022-09-18T09:24:43.451Z,13.80
2022-09-18T09:28:07.048Z,14.10
2022-09-18T09:31:00.301Z,14.30
2022-09-18T09:34:12.910Z,14.30
2022-09-18T09:37:20.133Z,14.20
2022-09-18T09:39:59.797Z,13.90
2022-09-18T09:42:37.274Z,14.30
2022-09-18T09:45:25.361Z,14.70
2022-09-18T10:12:47.314Z,14.80
2022-09-18T10:15:22.790Z,14.70
2022-09-18T10:17:55.608Z,15.10
2022-09-18T10:20:28.613Z,15.00
2022-09-18T10:23:09.999Z,15.00
2022-09-18T10:25:55.422Z,15.40
2022-09-18T10:28:25.790Z,15.70
2022-09-18T10:31:05.448Z,15.40
2022-09-18T10:33:50.408Z,15.50
2022-09-18T10:36:54.507Z,15.80
2022-09-18T10:39:31.827Z,16.00
2022-09-18T10:42:06.787Z,15.60
2022-09-18T10:44:39.863Z,15.60
2022-09-18T10:47:23.997Z,15.40
2022-09-18T10:50:21.405Z,14.80
2022-09-18T10:52:54.116Z,14.20
2022-09-18T10:55:31.332Z,13.80
2022-09-18T10:58:30.143Z,13.80
2022-09-18T11:01:06.960Z,13.80
2022-09-18T11:04:02.135Z,13.90
2022-09-18T11:06:35.773Z,14.70
2022-09-18T11:09:24.073Z,15.30
2022-09-18T11:11:51.998Z,14.90
2022-09-18T11:14:38.521Z,14.30
2022-09-18T11:17:32.222Z,13.70
2022-09-18T11:20:05.043Z,13.10
2022-09-18T11:22:44.672Z,11.70
2022-09-18T11:25:27.591Z,11.00
2022-09-18T11:28:21.544Z,10.90
2022-09-18T11:31:15.901Z,11.20
2022-09-18T11:33:49.484Z,11.30
2022-09-18T11:36:27.434Z,11.50
2022-09-18T11:39:00.186Z,11.50
2022-09-18T11:41:40.532Z,11.60
2022-09-18T11:44:32.459Z,11.70
2022-09-18T11:47:37.217Z,12.30
2022-09-18T11:50:26.270Z,13.00
2022-09-18T11:52:58.927Z,14.10
2022-09-18T11:55:35.177Z,14.80
2022-09-18T11:58:09.354Z,14.90
2022-09-18T12:00:48.376Z,15.00
2022-09-18T12:03:29.295Z,14.90
2022-09-18T12:06:03.976Z,15.00
2022-09-18T12:08:53.802Z,15.10
2022-09-18T12:11:59.468Z,15.20
2022-09-18T12:14:42.052Z,14.90
2022-09-18T12:17:54.458Z,14.50
2022-09-18T12:20:26.578Z,14.70
2022-09-18T12:22:56.557Z,14.90
2022-09-18T12:26:12.586Z,15.00
2022-09-18T12:29:26.287Z,15.20
2022-09-18T12:32:01.693Z,15.00
2022-09-18T12:34:47.815Z,14.70
2022-09-18T12:37:56.682Z,15.20
2022-09-18T12:40:36.083Z,15.50
2022-09-18T12:43:27.025Z,15.30
2022-09-18T12:46:21.082Z,14.90
2022-09-18T12:49:03.987Z,14.80
2022-09-18T12:51:46.632Z,14.80
2022-09-18T12:54:41.127Z,14.90
2022-09-18T12:57:43.956Z,15.00
2022-09-18T13:00:16.184Z,15.00
2022-09-18T13:02:57.592Z,15.30
2022-09-18T13:05:47.735Z,15.40
2022-09-18T13:08:26.513Z,15.70
2022-09-18T13:37:06.666Z,14.80
2022-09-18T13:39:50.177Z,14.50
2022-09-18T13:42:36.718Z,14.60
2022-09-18T13:45:32.770Z,14.30
2022-09-18T13:48:12.336Z,14.30
2022-09-18T13:50:51.069Z,14.10
2022-09-18T13:53:44.487Z,14.00
2022-09-18T13:56:14.100Z,14.10
2022-09-18T13:58:56.077Z,14.30
2022-09-18T14:02:02.520Z,14.40
2022-09-18T14:05:02.366Z,14.10
2022-09-18T14:07:51.390Z,13.70
2022-09-18T14:10:34.938Z,13.30
2022-09-18T14:13:12.313Z,12.80
2022-09-18T14:15:39.707Z,12.10
2022-09-18T14:18:16.782Z,11.80
2022-09-18T14:20:52.481Z,11.70
2022-09-18T14:24:13.679Z,11.60
2022-09-18T14:27:20.644Z,11.60
2022-09-18T14:29:53.998Z,11.60
2022-09-18T14:32:22.614Z,11.60
2022-09-18T14:34:54.780Z,11.60
2022-09-18T14:37:33.073Z,11.60
2022-09-18T14:40:00.767Z,11.50
2022-09-18T14:42:33.990Z,11.30
2022-09-18T14:45:33.619Z,11.10
2022-09-18T14:48:21.012Z,11.00
2022-09-18T14:51:19.851Z,10.80
2022-09-18T14:56:37.764Z,10.50
2022-09-18T14:59:16.341Z,10.50
2022-09-18T15:01:44.246Z,10.40
2022-09-18T15:04:19.568Z,10.30
2022-09-18T15:06:53.624Z,10.30
2022-09-18T15:09:33.259Z,10.30
2022-09-18T15:12:03.245Z,10.30
2022-09-18T15:14:44.100Z,10.30
2022-09-18T15:17:23.860Z,10.20
2022-09-18T15:20:12.409Z,10.10
2022-09-18T15:22:39.855Z,10.20
2022-09-18T15:25:14.500Z,10.10
2022-09-18T15:27:43.736Z,10.10
2022-09-18T15:30:19.685Z,10.10
2022-09-18T15:33:00.488Z,10.10
2022-09-18T15:35:31.425Z,10.10
2022-09-18T15:38:13.841Z,10.20
2022-09-18T15:40:43.307Z,10.20
2022-09-18T15:43:47.003Z,10.20
2022-09-18T15:46:33.113Z,10.20
2022-09-18T15:49:03.262Z,10.20
2022-09-18T15:51:33.096Z,10.10
2022-09-18T15:54:23.498Z,10.20
2022-09-18T15:56:53.494Z,10.20
2022-09-18T15:59:38.912Z,10.20
2022-09-18T16:02:37.574Z,10.20
2022-09-18T16:05:13.221Z,10.30
2022-09-18T16:07:52.758Z,10.20
2022-09-18T16:10:56.215Z,10.20
2022-09-18T16:13:31.303Z,10.20
2022-09-18T16:16:15.938Z,10.20
2022-09-18T16:19:11.768Z,10.20
2022-09-18T16:21:41.752Z,10.20
2022-09-18T16:24:32.063Z,10.20
2022-09-18T16:27:05.765Z,10.30
2022-09-18T16:29:34.977Z,10.30
2022-09-18T16:32:02.654Z,10.30
2022-09-18T16:34:30.218Z,10.40
2022-09-18T16:36:57.758Z,10.30
2022-09-18T16:39:26.711Z,10.40
2022-09-18T16:41:54.661Z,10.40
2022-09-18T16:44:22.139Z,10.30
2022-09-18T16:46:58.215Z,10.40
2022-09-18T16:49:28.253Z,10.40
2022-09-18T16:51:55.951Z,10.40
2022-09-18T16:54:23.687Z,10.30
2022-09-18T16:56:56.526Z,10.30
2022-09-18T16:59:26.995Z,10.30
2022-09-18T17:02:03.923Z,10.20
2022-09-18T17:04:32.675Z,10.20
2022-09-18T17:07:00.170Z,10.20
2022-09-18T17:09:27.571Z,10.10
2022-09-18T17:11:55.340Z,10.10
2022-09-18T17:14:23.456Z,10.10
2022-09-18T17:16:51.295Z,10.10
2022-09-18T17:19:19.085Z,10.10
2022-09-18T17:21:46.927Z,10.10
2022-09-18T17:24:14.342Z,10.10
2022-09-18T17:26:42.260Z,10.10
2022-09-18T17:29:11.530Z,10.10
2022-09-18T17:31:38.973Z,10.10
2022-09-18T17:34:06.490Z,10.10
2022-09-18T17:36:36.811Z,10.00
2022-09-18T17:39:04.448Z,10.00
2022-09-18T17:41:32.950Z,10.00
2022-09-18T17:44:00.475Z,10.00
2022-09-18T17:46:28.090Z,9.90
2022-09-18T17:48:57.673Z,9.80
2022-09-18T17:51:28.648Z,9.80
2022-09-18T17:53:59.346Z,9.70
2022-09-18T17:56:29.985Z,9.70
2022-09-18T17:59:03.866Z,9.70
2022-09-18T18:01:32.490Z,9.60
2022-09-18T18:04:00.404Z,9.60
2022-09-18T18:06:27.960Z,9.60
2022-09-18T18:08:56.211Z,9.60
2022-09-18T18:11:25.283Z,9.50
2022-09-18T18:13:54.365Z,9.50
2022-09-18T18:16:24.977Z,9.40
2022-09-18T18:18:55.614Z,9.40
2022-09-18T18:21:23.623Z,9.20
2022-09-18T18:24:08.946Z,9.20
2022-09-18T18:26:37.956Z,9.20
2022-09-18T18:29:08.142Z,9.10
2022-09-18T18:31:36.326Z,9.10
2022-09-18T18:34:04.507Z,9.10
2022-09-18T18:36:33.889Z,9.20
2022-09-18T18:39:04.195Z,9.30
2022-09-18T18:41:33.701Z,9.30
2022-09-18T18:44:03.210Z,9.30
2022-09-18T18:46:36.035Z,9.30
2022-09-18T18:49:09.089Z,9.20
2022-09-18T18:51:43.024Z,9.20
2022-09-18T18:54:11.147Z,9.10
2022-09-18T18:56:39.124Z,9.10
2022-09-18T18:59:11.007Z,9.10
2022-09-18T19:01:39.358Z,9.00
2022-09-18T19:04:09.573Z,9.00
2022-09-18T19:06:39.866Z,8.90
2022-09-18T19:09:20.626Z,9.10
2022-09-18T19:11:49.715Z,9.00
2022-09-18T19:14:18.513Z,8.90
2022-09-18T19:16:46.689Z,8.90
2022-09-18T19:19:16.019Z,8.90
2022-09-18T19:21:43.943Z,8.80
2022-09-18T19:24:12.415Z,8.80
2022-09-18T19:26:41.485Z,8.90
2022-09-18T19:29:12.679Z,8.90
2022-09-18T19:31:42.730Z,8.90
2022-09-18T19:34:12.470Z,8.80
2022-09-18T19:36:40.117Z,8.80
2022-09-18T19:39:11.262Z,8.70
2022-09-18T19:42:02.066Z,8.70
2022-09-18T19:44:43.243Z,8.60
2022-09-18T19:47:41.007Z,8.60
2022-09-18T19:50:32.985Z,8.50
2022-09-18T19:53:01.170Z,8.50
2022-09-18T19:55:28.929Z,8.50
2022-09-18T19:57:59.299Z,8.50
2022-09-18T20:00:26.830Z,8.50
2022-09-18T20:02:58.872Z,8.50
2022-09-18T20:05:26.998Z,8.60
2022-09-18T20:07:54.403Z,8.50
2022-09-18T20:10:22.999Z,8.50
2022-09-18T20:12:52.712Z,8.50
2022-09-18T20:15:20.424Z,8.50
2022-09-18T20:17:47.804Z,8.50
2022-09-18T20:20:16.628Z,8.40
2022-09-18T20:22:44.156Z,8.50
2022-09-18T20:25:12.048Z,8.50
2022-09-18T20:27:41.832Z,8.50
2022-09-18T20:30:11.183Z,8.40
2022-09-18T20:32:39.172Z,8.40
2022-09-18T20:35:07.151Z,8.30
2022-09-18T20:37:34.528Z,8.20
2022-09-18T20:40:04.143Z,8.20
2022-09-18T20:42:32.709Z,8.20
2022-09-18T20:45:03.765Z,8.10
2022-09-18T20:47:35.095Z,8.10
2022-09-18T20:50:08.002Z,8.10
2022-09-18T20:52:43.000Z,8.00
2022-09-18T20:55:17.356Z,7.80
2022-09-18T20:57:46.528Z,7.90
2022-09-18T21:00:16.211Z,7.90
2022-09-18T21:02:49.347Z,7.80
2022-09-18T21:05:17.013Z,7.80
2022-09-18T21:07:45.720Z,7.90
2022-09-18T21:10:13.968Z,7.90
2022-09-18T21:12:41.307Z,7.80
2022-09-18T21:15:13.665Z,7.90
2022-09-18T21:17:42.636Z,7.80
2022-09-18T21:20:10.111Z,7.90
2022-09-18T21:22:57.457Z,7.80
2022-09-18T21:25:25.430Z,7.80
2022-09-18T21:27:55.885Z,7.90
2022-09-18T21:30:25.401Z,7.90
2022-09-18T21:32:55.812Z,7.90
2022-09-18T21:35:23.263Z,7.90
2022-09-18T21:37:51.920Z,8.00
2022-09-18T21:40:19.295Z,8.00
2022-09-18T21:42:47.703Z,8.00
2022-09-18T21:45:19.561Z,8.00
2022-09-18T21:47:49.366Z,8.10
2022-09-18T21:50:16.840Z,8.10
2022-09-18T21:52:44.380Z,8.00
2022-09-18T21:55:11.918Z,8.20
2022-09-18T21:57:39.361Z,8.20
2022-09-18T22:00:09.223Z,8.30
2022-09-18T22:02:39.490Z,8.30
2022-09-18T22:05:09.116Z,8.30
2022-09-18T22:07:36.495Z,8.50
2022-09-18T22:10:04.830Z,8.60
2022-09-18T22:12:32.875Z,8.70
2022-09-18T22:15:00.213Z,8.80
2022-09-18T22:17:27.717Z,9.00
2022-09-18T22:19:56.542Z,9.00
2022-09-18T22:22:23.934Z,9.00
2022-09-18T22:24:51.209Z,9.10
2022-09-18T22:27:18.625Z,9.10
2022-09-18T22:29:46.064Z,9.10
2022-09-18T22:32:13.449Z,9.20
2022-09-18T22:34:41.601Z,9.20
2022-09-18T22:37:10.009Z,9.20
2022-09-18T22:39:37.371Z,9.20
2022-09-18T22:42:04.949Z,9.20
2022-09-18T22:44:32.306Z,9.20
2022-09-18T22:46:59.769Z,9.30
2022-09-18T22:49:27.109Z,9.30
2022-09-18T22:51:54.667Z,9.30
2022-09-18T22:54:26.538Z,9.20
2022-09-18T22:56:55.206Z,9.20
2022-09-18T22:59:24.401Z,9.10
2022-09-18T23:02:03.731Z,9.00
2022-09-18T23:04:33.582Z,9.00
2022-09-18T23:07:01.767Z,9.00
2022-09-18T23:09:31.040Z,8.90
2022-09-18T23:11:59.387Z,8.80
2022-09-18T23:14:29.910Z,8.80
2022-09-18T23:16:58.429Z,8.80
2022-09-18T23:19:44.704Z,8.80
2022-09-18T23:22:12.475Z,8.70
2022-09-18T23:24:39.778Z,8.60
2022-09-18T23:27:07.159Z,8.60
2022-09-18T23:29:35.429Z,8.60
2022-09-18T23:32:04.326Z,8.60
2022-09-18T23:34:33.690Z,8.60
2022-09-18T23:37:01.321Z,8.50
2022-09-18T23:39:34.101Z,8.50
2022-09-18T23:42:02.843Z,8.40
2022-09-18T23:44:31.486Z,8.40
2022-09-18T23:47:00.095Z,8.40
2022-09-18T23:49:28.000Z,8.30
2022-09-18T23:51:55.760Z,8.30
2022-09-18T23:54:28.666Z,8.30
2022-09-18T23:56:56.398Z,8.30
2022-09-18T23:59:25.543Z,8.30
